createdAt,value
2023-03-19T00:02:28.425Z,17.30
2023-03-19T00:05:53.852Z,14.13
2023-03-19T00:09:19.148Z,8.70
2023-03-19T00:12:42.704Z,10.93
2023-03-19T00:16:06.797Z,11.20
2023-03-19T00:19:30.751Z,6.40
2023-03-19T00:22:54.309Z,10.17
2023-03-19T00:26:19.299Z,9.40
2023-03-19T00:29:42.916Z,6.63
2023-03-19T00:33:07.305Z,8.90
2023-03-19T00:36:31.112Z,8.53
2023-03-19T00:39:54.749Z,6.20
2023-03-19T00:43:20.006Z,7.93
2023-03-19T00:46:43.579Z,7.73
2023-03-19T00:50:08.187Z,10.13
2023-03-19T00:53:31.753Z,13.57
2023-03-19T00:56:55.352Z,8.30
2023-03-19T01:00:20.955Z,8.23
2023-03-19T01:03:45.250Z,7.70
2023-03-19T01:07:09.075Z,15.40
2023-03-19T01:10:34.792Z,6.70
2023-03-19T01:13:59.562Z,9.07
2023-03-19T01:17:24.499Z,7.27
2023-03-19T01:20:48.125Z,7.57
2023-03-19T01:24:11.717Z,5.87
2023-03-19T01:27:35.795Z,7.40
2023-03-19T01:31:01.872Z,6.43
2023-03-19T01:34:46.320Z,7.70
2023-03-19T01:38:12.912Z,7.43
2023-03-19T01:41:37.361Z,9.80
2023-03-19T01:45:40.857Z,8.20
2023-03-19T01:49:31.686Z,8.90
2023-03-19T01:53:38.726Z,9.83
2023-03-19T01:57:17.197Z,7.70
2023-03-19T02:00:51.518Z,9.13
2023-03-19T02:04:15.784Z,7.60
2023-03-19T02:07:42.496Z,7.97
2023-03-19T02:11:08.364Z,7.20
2023-03-19T02:14:32.099Z,6.90
2023-03-19T02:17:55.758Z,7.53
2023-03-19T02:21:21.030Z,6.70
2023-03-19T02:24:52.739Z,6.30
2023-03-19T02:28:22.211Z,8.53
2023-03-19T02:31:50.109Z,9.13
2023-03-19T02:35:13.763Z,6.07
2023-03-19T02:38:40.493Z,9.10
2023-03-19T02:42:05.368Z,8.30
2023-03-19T02:45:32.660Z,6.87
2023-03-19T02:48:56.342Z,7.20
2023-03-19T02:52:22.583Z,7.27
2023-03-19T02:55:46.990Z,10.80
2023-03-19T02:59:10.542Z,9.27
2023-03-19T03:02:36.622Z,7.80
2023-03-19T03:06:02.602Z,7.40
2023-03-19T03:09:27.122Z,9.77
2023-03-19T03:12:51.456Z,6.37
2023-03-19T03:16:15.514Z,7.00
2023-03-19T03:19:40.589Z,6.53
2023-03-19T03:23:04.229Z,14.93
2023-03-19T03:26:28.105Z,10.40
2023-03-19T03:29:52.033Z,10.87
2023-03-19T03:33:15.785Z,12.17
2023-03-19T03:36:42.106Z,7.27
2023-03-19T03:40:08.426Z,7.67
2023-03-19T03:43:32.921Z,9.40
2023-03-19T03:46:56.764Z,7.50
2023-03-19T03:50:20.799Z,8.63
2023-03-19T03:53:47.974Z,6.80
2023-03-19T03:57:12.250Z,8.73
2023-03-19T04:00:36.273Z,8.87
2023-03-19T04:04:01.174Z,11.50
2023-03-19T04:07:24.769Z,7.93
2023-03-19T04:10:53.307Z,11.30
2023-03-19T04:14:17.149Z,11.63
2023-03-19T04:17:41.690Z,6.63
2023-03-19T04:21:07.058Z,9.70
2023-03-19T04:24:31.138Z,6.20
2023-03-19T04:27:59.635Z,8.60
2023-03-19T04:31:25.629Z,6.30
2023-03-19T04:34:49.427Z,7.23
2023-03-19T04:38:13.588Z,7.63
2023-03-19T04:41:37.454Z,10.07
2023-03-19T04:45:25.798Z,8.70
2023-03-19T04:48:49.377Z,11.43
2023-03-19T04:52:13.116Z,9.40
2023-03-19T04:55:37.071Z,8.33
2023-03-19T04:59:04.998Z,12.00
2023-03-19T05:02:30.619Z,9.90
2023-03-19T05:05:54.890Z,7.80
2023-03-19T05:09:18.546Z,7.80
2023-03-19T05:12:42.255Z,8.90
2023-03-19T05:16:07.195Z,12.53
2023-03-19T05:19:32.615Z,12.60
2023-03-19T05:22:56.364Z,9.17
2023-03-19T05:26:29.631Z,7.23
2023-03-19T05:30:20.454Z,8.47
2023-03-19T05:34:19.205Z,9.03
2023-03-19T05:37:45.192Z,9.63
2023-03-19T05:41:09.414Z,7.43
2023-03-19T05:44:44.082Z,9.80
2023-03-19T05:48:18.241Z,10.33
2023-03-19T05:51:42.149Z,9.17
2023-03-19T05:55:09.646Z,9.67
2023-03-19T05:58:46.652Z,8.83
2023-03-19T06:02:14.221Z,8.80
2023-03-19T06:05:38.228Z,9.20
2023-03-19T06:09:11.370Z,8.53
2023-03-19T06:12:39.147Z,7.80
2023-03-19T06:16:16.696Z,11.73
2023-03-19T06:19:50.583Z,6.77
2023-03-19T06:23:16.277Z,14.60
2023-03-19T06:26:40.121Z,6.20
2023-03-19T06:30:13.720Z,5.47
2023-03-19T06:33:38.128Z,6.73
2023-03-19T06:37:01.958Z,7.57
2023-03-19T06:40:25.546Z,8.97
2023-03-19T06:43:49.280Z,6.27
2023-03-19T06:47:14.389Z,7.07
2023-03-19T06:50:39.019Z,8.70
2023-03-19T06:54:02.656Z,6.30
2023-03-19T06:57:26.924Z,6.50
2023-03-19T07:00:51.028Z,7.80
2023-03-19T07:04:16.120Z,6.03
2023-03-19T07:07:39.764Z,10.00
2023-03-19T07:11:05.542Z,7.50
2023-03-19T07:14:29.336Z,6.53
2023-03-19T07:17:52.960Z,5.30
2023-03-19T07:21:17.954Z,6.00
2023-03-19T07:24:41.538Z,7.33
2023-03-19T07:28:05.779Z,7.47
2023-03-19T07:31:29.444Z,8.27
2023-03-19T07:34:53.123Z,11.33
2023-03-19T07:38:18.254Z,11.23
2023-03-19T07:41:44.704Z,9.40
2023-03-19T07:45:12.006Z,9.80
2023-03-19T07:48:35.734Z,7.50
2023-03-19T07:51:59.391Z,10.60
2023-03-19T07:55:24.774Z,6.40
2023-03-19T07:58:48.540Z,8.67
2023-03-19T08:02:14.041Z,9.47
2023-03-19T08:05:39.696Z,7.00
2023-03-19T08:09:03.977Z,8.83
2023-03-19T08:12:29.054Z,10.40
2023-03-19T08:15:53.451Z,6.80
2023-03-19T08:19:18.653Z,10.27
2023-03-19T08:22:42.830Z,10.93
2023-03-19T08:26:07.147Z,8.23
2023-03-19T08:29:32.097Z,8.53
2023-03-19T08:32:56.141Z,8.00
2023-03-19T08:36:20.261Z,8.67
2023-03-19T08:39:43.853Z,8.67
2023-03-19T08:43:07.695Z,8.30
2023-03-19T08:46:33.453Z,10.47
2023-03-19T08:49:57.115Z,8.50
2023-03-19T08:53:20.742Z,11.97
2023-03-19T08:56:44.548Z,9.33
2023-03-19T09:00:09.711Z,10.23
2023-03-19T09:03:34.853Z,9.57
2023-03-19T09:06:58.343Z,9.20
2023-03-19T09:10:21.974Z,11.00
2023-03-19T09:13:45.557Z,9.57
2023-03-19T09:17:09.431Z,7.93
2023-03-19T09:20:34.360Z,6.80
2023-03-19T09:23:58.089Z,9.27
2023-03-19T09:27:21.816Z,7.37
2023-03-19T09:30:47.858Z,8.70
2023-03-19T09:34:11.783Z,7.90
2023-03-19T09:37:36.812Z,11.00
2023-03-19T09:41:09.872Z,9.00
2023-03-19T09:44:36.078Z,12.20
2023-03-19T09:48:05.650Z,6.67
2023-03-19T09:51:34.904Z,7.13
2023-03-19T09:55:04.820Z,8.70
2023-03-19T09:58:33.699Z,9.90
2023-03-19T10:02:05.015Z,10.57
2023-03-19T10:05:42.057Z,7.90
2023-03-19T10:09:31.726Z,12.10
2023-03-19T10:13:04.047Z,10.87
2023-03-19T10:16:29.948Z,8.23
2023-03-19T10:19:57.310Z,7.83
2023-03-19T10:23:38.469Z,10.17
2023-03-19T10:27:10.811Z,7.33
2023-03-19T10:30:37.015Z,7.87
2023-03-19T10:34:12.866Z,8.60
2023-03-19T10:37:37.222Z,8.57
2023-03-19T10:41:20.667Z,11.00
2023-03-19T10:44:49.328Z,9.83
2023-03-19T10:48:17.636Z,12.40
2023-03-19T10:51:44.338Z,10.20
2023-03-19T10:55:15.442Z,9.10
2023-03-19T10:58:45.410Z,17.13
2023-03-19T11:02:24.253Z,9.70
2023-03-19T11:06:11.298Z,9.80
2023-03-19T11:09:39.319Z,10.40
2023-03-19T11:13:07.183Z,9.80
2023-03-19T11:16:31.146Z,11.83
2023-03-19T11:19:56.702Z,11.07
2023-03-19T11:23:21.661Z,7.87
2023-03-19T11:26:54.703Z,7.90
2023-03-19T11:30:21.372Z,7.33
2023-03-19T11:33:58.278Z,7.40
2023-03-19T11:37:28.616Z,8.50
2023-03-19T11:40:58.144Z,9.63
2023-03-19T11:44:27.494Z,8.70
2023-03-19T11:48:01.533Z,10.17
2023-03-19T11:51:31.129Z,9.20
2023-03-19T11:55:14.147Z,8.27
2023-03-19T11:59:10.081Z,10.83
2023-03-19T12:02:56.306Z,7.77
2023-03-19T12:06:34.917Z,7.87
2023-03-19T12:10:17.896Z,7.97
2023-03-19T12:13:57.165Z,8.27
2023-03-19T12:17:38.426Z,17.50
2023-03-19T12:21:12.556Z,9.20
2023-03-19T12:24:46.767Z,7.70
2023-03-19T12:28:18.550Z,10.53
2023-03-19T12:31:57.147Z,8.90
2023-03-19T12:35:29.505Z,8.40
2023-03-19T12:38:58.254Z,8.80
2023-03-19T12:42:24.066Z,8.60
2023-03-19T12:45:51.835Z,8.20
2023-03-19T12:49:20.280Z,9.17
2023-03-19T12:52:47.687Z,9.87
2023-03-19T12:56:15.883Z,16.60
2023-03-19T12:59:45.526Z,9.70
2023-03-19T13:03:14.384Z,10.03
2023-03-19T13:06:42.062Z,11.40
2023-03-19T13:10:13.231Z,10.40
2023-03-19T13:13:44.150Z,10.37
2023-03-19T13:17:15.237Z,10.40
2023-03-19T13:20:54.674Z,10.57
2023-03-19T13:24:26.377Z,11.20
2023-03-19T13:27:55.670Z,12.13
2023-03-19T13:31:22.602Z,14.83
2023-03-19T13:34:46.562Z,10.97
2023-03-19T13:38:21.044Z,11.03
2023-03-19T13:41:59.661Z,14.03
2023-03-19T13:45:36.111Z,12.97
2023-03-19T13:49:38.165Z,11.93
2023-03-19T13:53:33.562Z,11.70
2023-03-19T13:57:07.762Z,13.47
2023-03-19T14:00:58.531Z,12.23
2023-03-19T14:04:27.800Z,12.07
2023-03-19T14:07:56.356Z,12.33
2023-03-19T14:11:24.837Z,11.20
2023-03-19T14:14:51.701Z,11.77
2023-03-19T14:18:21.842Z,13.23
2023-03-19T14:22:02.708Z,11.47
2023-03-19T14:25:27.800Z,13.17
2023-03-19T14:28:58.504Z,12.70
2023-03-19T14:32:29.284Z,10.63
2023-03-19T14:35:54.859Z,12.80
2023-03-19T14:39:23.523Z,11.97
2023-03-19T14:42:58.911Z,10.80
2023-03-19T14:46:33.068Z,12.83
2023-03-19T14:50:16.009Z,11.87
2023-03-19T14:53:45.089Z,12.90
2023-03-19T14:57:09.342Z,10.23
2023-03-19T15:00:44.287Z,10.07
2023-03-19T15:04:11.250Z,10.90
2023-03-19T15:07:39.309Z,10.40
2023-03-19T15:11:19.550Z,14.70
2023-03-19T15:15:05.530Z,10.37
2023-03-19T15:18:29.690Z,12.87
2023-03-19T15:21:53.290Z,14.90
2023-03-19T15:25:17.213Z,12.67
2023-03-19T15:28:53.834Z,10.40
2023-03-19T15:32:49.648Z,9.00
2023-03-19T15:36:19.929Z,7.20
2023-03-19T15:39:46.386Z,6.10
2023-03-19T15:43:13.471Z,7.70
2023-03-19T15:46:42.124Z,7.37
2023-03-19T15:50:12.345Z,7.23
2023-03-19T15:53:37.966Z,6.87
2023-03-19T15:57:01.565Z,6.47
2023-03-19T16:00:26.045Z,7.00
2023-03-19T16:03:57.609Z,8.60
2023-03-19T16:07:26.959Z,8.17
2023-03-19T16:10:51.104Z,8.20
2023-03-19T16:14:25.401Z,7.73
2023-03-19T16:17:49.811Z,7.53
2023-03-19T16:21:18.841Z,8.23
2023-03-19T16:24:44.525Z,6.90
2023-03-19T16:28:17.777Z,8.20
2023-03-19T16:31:46.986Z,8.00
2023-03-19T16:35:15.352Z,8.40
2023-03-19T16:38:45.607Z,7.47
2023-03-19T16:42:40.495Z,7.50
2023-03-19T16:46:10.822Z,6.93
2023-03-19T16:49:34.479Z,7.97
2023-03-19T16:52:59.521Z,8.00
2023-03-19T16:56:24.613Z,7.77
2023-03-19T16:59:49.088Z,9.60
2023-03-19T17:03:14.954Z,7.33
2023-03-19T17:06:38.615Z,8.30
2023-03-19T17:10:02.273Z,7.27
2023-03-19T17:13:29.942Z,8.87
2023-03-19T17:16:55.193Z,7.83
2023-03-19T17:20:19.383Z,7.77
2023-03-19T17:23:43.129Z,13.60
2023-03-19T17:27:07.102Z,10.30
2023-03-19T17:30:32.189Z,9.80
2023-03-19T17:34:01.481Z,10.57
2023-03-19T17:37:25.831Z,9.80
2023-03-19T17:40:49.713Z,9.20
2023-03-19T17:44:14.424Z,10.00
2023-03-19T17:47:39.418Z,11.33
2023-03-19T17:51:03.895Z,12.13
2023-03-19T17:54:28.402Z,11.27
2023-03-19T17:57:52.659Z,11.30
2023-03-19T18:01:19.265Z,12.03
2023-03-19T18:04:44.294Z,13.13
2023-03-19T18:08:08.134Z,13.37
2023-03-19T18:11:31.829Z,13.40
2023-03-19T18:14:55.477Z,13.53
2023-03-19T18:18:22.193Z,14.53
2023-03-19T18:21:47.278Z,12.20
2023-03-19T18:25:17.171Z,12.70
2023-03-19T18:28:41.126Z,11.97
2023-03-19T18:32:08.228Z,12.73
2023-03-19T18:35:34.228Z,14.23
2023-03-19T18:38:59.662Z,14.60
2023-03-19T18:42:23.566Z,17.13
2023-03-19T18:45:50.026Z,15.97
2023-03-19T18:49:21.540Z,15.33
2023-03-19T18:52:45.392Z,14.83
2023-03-19T18:56:21.188Z,15.27
2023-03-19T18:59:45.008Z,16.90
2023-03-19T19:03:09.007Z,17.47
2023-03-19T19:06:46.935Z,14.43
2023-03-19T19:10:12.751Z,15.53
2023-03-19T19:13:53.417Z,17.50
2023-03-19T19:17:24.001Z,16.50
2023-03-19T19:20:48.239Z,13.20
2023-03-19T19:24:14.763Z,16.07
2023-03-19T19:27:38.408Z,16.37
2023-03-19T19:31:03.856Z,19.17
2023-03-19T19:34:27.536Z,15.30
2023-03-19T19:37:51.478Z,20.07
2023-03-19T19:41:16.920Z,14.77
2023-03-19T19:44:41.427Z,17.33
2023-03-19T19:48:13.530Z,22.30
2023-03-19T19:51:38.739Z,16.67
2023-03-19T19:55:02.860Z,16.03
2023-03-19T19:58:30.862Z,16.83
2023-03-19T20:01:54.769Z,17.33
2023-03-19T20:05:23.200Z,16.77
2023-03-19T20:08:49.148Z,15.70
2023-03-19T20:12:21.757Z,18.27
2023-03-19T20:15:45.597Z,17.20
2023-03-19T20:19:17.588Z,17.83
2023-03-19T20:22:42.566Z,16.67
2023-03-19T20:26:07.037Z,16.87
2023-03-19T20:29:34.534Z,18.20
2023-03-19T20:32:59.550Z,16.80
2023-03-19T20:36:23.108Z,17.97
2023-03-19T20:39:48.034Z,16.63
2023-03-19T20:43:23.219Z,17.23
2023-03-19T20:46:46.848Z,15.13
2023-03-19T20:50:18.296Z,18.20
2023-03-19T20:53:41.836Z,18.73
2023-03-19T20:57:06.892Z,18.10
2023-03-19T21:00:32.659Z,16.33
2023-03-19T21:03:56.940Z,18.77
2023-03-19T21:07:33.243Z,16.43
2023-03-19T21:10:56.851Z,17.90
2023-03-19T21:14:23.322Z,16.30
2023-03-19T21:17:47.439Z,16.40
2023-03-19T21:21:13.651Z,19.80
2023-03-19T21:24:37.615Z,17.57
2023-03-19T21:28:03.477Z,18.13
2023-03-19T21:31:29.186Z,16.47
2023-03-19T21:34:54.015Z,20.87
2023-03-19T21:38:17.715Z,23.00
2023-03-19T21:41:42.494Z,29.40
2023-03-19T21:45:07.136Z,30.13
2023-03-19T21:48:33.962Z,35.67
2023-03-19T21:51:58.015Z,39.90
2023-03-19T21:55:21.696Z,39.30
2023-03-19T21:58:45.482Z,35.27
2023-03-19T22:02:43.034Z,39.70
2023-03-19T22:06:11.634Z,39.43
2023-03-19T22:09:35.722Z,36.17
2023-03-19T22:12:59.896Z,42.37
2023-03-19T22:16:26.064Z,36.87
2023-03-19T22:19:49.691Z,39.63
2023-03-19T22:23:15.099Z,32.87
2023-03-19T22:26:40.522Z,37.67
2023-03-19T22:30:04.387Z,34.03
2023-03-19T22:33:28.893Z,32.63
2023-03-19T22:36:52.535Z,41.07
2023-03-19T22:40:19.425Z,36.27
2023-03-19T22:43:43.564Z,35.00
2023-03-19T22:47:07.402Z,30.83
2023-03-19T22:50:33.035Z,35.33
2023-03-19T22:53:56.937Z,33.27
2023-03-19T22:57:21.897Z,30.53
2023-03-19T23:00:46.172Z,31.60
2023-03-19T23:04:20.159Z,35.40
2023-03-19T23:07:43.818Z,35.20
2023-03-19T23:11:07.796Z,34.00
2023-03-19T23:14:33.083Z,38.03
2023-03-19T23:17:59.194Z,34.00
2023-03-19T23:21:23.383Z,35.07
2023-03-19T23:24:47.085Z,37.57
2023-03-19T23:28:19.397Z,38.17
2023-03-19T23:31:44.371Z,34.23
2023-03-19T23:35:16.540Z,33.13
2023-03-19T23:38:40.122Z,39.47
2023-03-19T23:42:03.876Z,34.33
2023-03-19T23:45:34.579Z,35.37
2023-03-19T23:48:59.705Z,32.40
2023-03-19T23:52:23.360Z,29.47
2023-03-19T23:55:49.001Z,31.87
2023-03-19T23:59:12.549Z,34.27
